createdAt,value
2023-03-29T00:03:31.171Z,91.70
2023-03-29T00:08:38.373Z,92.20
2023-03-29T00:13:40.756Z,91.20
2023-03-29T00:18:43.884Z,90.70
2023-03-29T00:23:46.203Z,90.70
2023-03-29T00:28:48.750Z,90.90
2023-03-29T00:33:51.348Z,90.90
2023-03-29T00:38:56.202Z,90.60
2023-03-29T00:44:01.078Z,91.60
2023-03-29T00:49:12.893Z,90.80
2023-03-29T00:54:18.780Z,91.10
2023-03-29T00:59:24.598Z,92.70
2023-03-29T01:04:29.433Z,93.40
2023-03-29T01:09:37.416Z,94.00
2023-03-29T01:14:45.406Z,94.30
2023-03-29T01:19:58.425Z,94.10
2023-03-29T01:25:14.928Z,94.50
2023-03-29T01:30:36.317Z,94.80
2023-03-29T01:35:45.407Z,94.90
2023-03-29T01:40:47.849Z,93.10
2023-03-29T01:46:02.784Z,93.70
2023-03-29T01:51:10.024Z,94.90
2023-03-29T01:56:17.114Z,93.90
2023-03-29T02:01:26.056Z,92.60
2023-03-29T02:06:31.473Z,92.40
2023-03-29T02:11:36.911Z,93.70
2023-03-29T02:16:40.373Z,94.30
2023-03-29T02:21:57.712Z,94.90
2023-03-29T02:27:01.305Z,95.30
2023-03-29T02:32:20.632Z,96.20
2023-03-29T02:37:26.706Z,96.10
2023-03-29T02:42:31.416Z,96.40
2023-03-29T02:47:40.326Z,95.10
2023-03-29T02:52:59.265Z,95.30
2023-03-29T02:58:08.108Z,95.90
2023-03-29T03:03:12.265Z,96.50
2023-03-29T03:08:15.466Z,97.10
2023-03-29T03:13:17.953Z,96.90
2023-03-29T03:18:20.528Z,96.50
2023-03-29T03:23:23.537Z,96.30
2023-03-29T03:28:27.335Z,96.60
2023-03-29T03:33:30.467Z,96.60
2023-03-29T03:38:58.235Z,96.80
2023-03-29T03:44:00.870Z,96.20
2023-03-29T03:49:04.567Z,95.90
2023-03-29T03:54:14.480Z,96.00
2023-03-29T03:59:42.890Z,95.80
2023-03-29T04:04:50.137Z,95.70
2023-03-29T04:09:55.020Z,95.80
2023-03-29T04:15:08.554Z,95.70
2023-03-29T04:20:12.668Z,96.00
2023-03-29T04:25:16.998Z,95.50
2023-03-29T04:30:22.295Z,95.20
2023-03-29T04:35:54.210Z,94.80
2023-03-29T04:40:58.229Z,95.10
2023-03-29T04:46:09.963Z,95.00
2023-03-29T04:51:27.755Z,95.60
2023-03-29T04:56:30.669Z,95.60
2023-03-29T05:01:51.731Z,95.30
2023-03-29T05:06:55.483Z,94.60
2023-03-29T05:12:01.979Z,94.60
2023-03-29T05:17:10.854Z,94.40
2023-03-29T05:22:14.182Z,94.10
2023-03-29T05:27:17.526Z,93.60
2023-03-29T05:32:31.042Z,94.00
2023-03-29T05:37:34.430Z,93.60
2023-03-29T05:42:38.745Z,93.30
2023-03-29T05:47:44.247Z,93.20
2023-03-29T05:52:47.799Z,92.60
2023-03-29T05:57:50.815Z,91.00
2023-03-29T06:03:03.772Z,88.80
2023-03-29T06:08:12.996Z,85.80
2023-03-29T06:13:34.118Z,84.50
2023-03-29T06:18:40.326Z,82.60
2023-03-29T06:23:43.129Z,79.70
2023-03-29T06:28:46.220Z,78.70
2023-03-29T06:33:49.483Z,75.90
2023-03-29T06:39:29.026Z,76.60
2023-03-29T06:44:50.021Z,75.60
2023-03-29T06:49:55.414Z,76.70
2023-03-29T06:55:17.688Z,77.30
2023-03-29T07:00:28.101Z,77.50
2023-03-29T07:06:09.822Z,77.10
2023-03-29T07:11:16.254Z,74.30
2023-03-29T07:16:32.779Z,75.10
2023-03-29T07:21:55.127Z,77.30
2023-03-29T07:27:06.013Z,77.10
2023-03-29T07:32:09.433Z,77.10
2023-03-29T07:37:31.487Z,77.00
2023-03-29T07:42:38.821Z,77.70
2023-03-29T07:47:44.696Z,77.60
2023-03-29T07:52:48.270Z,77.10
2023-03-29T07:57:51.248Z,73.30
2023-03-29T08:02:54.924Z,73.10
2023-03-29T08:07:57.539Z,72.60
2023-03-29T08:13:20.405Z,71.60
2023-03-29T08:18:42.946Z,70.30
2023-03-29T08:23:45.966Z,70.30
2023-03-29T08:29:17.852Z,68.60
2023-03-29T08:34:21.130Z,67.10
2023-03-29T08:39:34.608Z,64.40
2023-03-29T08:44:58.734Z,63.60
2023-03-29T08:50:02.377Z,64.30
2023-03-29T08:55:29.585Z,63.50
2023-03-29T09:01:14.339Z,65.90
2023-03-29T09:06:29.352Z,61.90
2023-03-29T09:12:02.670Z,59.90
2023-03-29T09:17:44.266Z,59.50
2023-03-29T09:23:04.983Z,59.20
2023-03-29T09:28:45.888Z,55.40
2023-03-29T09:34:01.664Z,56.30
2023-03-29T09:39:17.244Z,54.70
2023-03-29T09:44:44.281Z,53.90
2023-03-29T09:49:57.729Z,55.60
2023-03-29T09:55:27.989Z,53.60
2023-03-29T10:00:38.598Z,54.70
2023-03-29T10:05:44.320Z,54.80
2023-03-29T10:10:51.051Z,54.70
2023-03-29T10:16:29.090Z,52.90
2023-03-29T10:21:31.833Z,53.50
2023-03-29T10:26:38.941Z,54.20
2023-03-29T10:31:43.144Z,52.90
2023-03-29T10:36:55.561Z,51.80
2023-03-29T10:41:59.826Z,52.50
2023-03-29T10:47:34.254Z,52.10
2023-03-29T10:52:36.740Z,50.60
2023-03-29T10:58:29.053Z,47.50
2023-03-29T11:03:45.654Z,46.60
2023-03-29T11:09:03.172Z,46.90
2023-03-29T11:14:23.744Z,46.40
2023-03-29T11:19:44.322Z,45.60
2023-03-29T11:25:11.928Z,48.20
2023-03-29T11:30:26.514Z,48.10
2023-03-29T11:35:45.614Z,47.80
2023-03-29T11:40:58.875Z,47.70
2023-03-29T11:46:14.102Z,46.80
2023-03-29T11:51:28.401Z,46.30
2023-03-29T11:56:41.232Z,46.00
2023-03-29T12:01:54.135Z,46.40
2023-03-29T12:07:13.955Z,45.70
2023-03-29T12:12:30.671Z,45.90
2023-03-29T12:18:00.940Z,43.60
2023-03-29T12:23:05.385Z,44.10
2023-03-29T12:28:20.053Z,44.20
2023-03-29T12:33:37.390Z,44.90
2023-03-29T12:38:59.202Z,45.80
2023-03-29T12:44:24.433Z,43.20
2023-03-29T12:49:38.241Z,42.70
2023-03-29T12:54:40.670Z,38.70
2023-03-29T12:59:47.009Z,37.70
2023-03-29T13:04:57.961Z,36.30
2023-03-29T13:10:28.173Z,36.80
2023-03-29T13:15:34.953Z,37.10
2023-03-29T13:21:13.956Z,37.60
2023-03-29T13:26:23.908Z,39.20
2023-03-29T13:31:26.645Z,41.00
2023-03-29T13:36:46.576Z,38.60
2023-03-29T13:41:54.380Z,39.10
2023-03-29T13:53:06.194Z,38.70
2023-03-29T13:58:44.884Z,38.00
2023-03-29T14:03:51.800Z,38.80
2023-03-29T14:08:55.298Z,39.00
2023-03-29T14:13:59.539Z,39.60
2023-03-29T14:19:40.263Z,36.40
2023-03-29T14:24:53.537Z,38.60
2023-03-29T14:29:55.830Z,41.70
2023-03-29T14:35:00.265Z,45.10
2023-03-29T14:40:04.478Z,40.90
2023-03-29T14:45:09.290Z,35.90
2023-03-29T14:50:31.873Z,35.80
2023-03-29T14:55:36.502Z,37.70
2023-03-29T15:00:42.416Z,35.20
2023-03-29T15:05:52.053Z,36.50
2023-03-29T15:10:54.472Z,37.80
2023-03-29T15:16:01.469Z,41.40
2023-03-29T15:21:05.168Z,44.90
2023-03-29T15:26:22.258Z,46.80
2023-03-29T15:31:27.115Z,48.10
2023-03-29T15:36:29.684Z,48.70
2023-03-29T15:41:32.104Z,49.20
2023-03-29T15:46:34.808Z,50.10
2023-03-29T15:51:37.272Z,50.60
2023-03-29T15:56:48.268Z,51.50
2023-03-29T16:01:51.071Z,51.60
2023-03-29T16:06:54.682Z,51.00
2023-03-29T16:11:57.069Z,50.10
2023-03-29T16:17:01.132Z,50.70
2023-03-29T16:22:07.171Z,51.80
2023-03-29T16:27:10.025Z,51.10
2023-03-29T16:32:12.636Z,52.50
2023-03-29T16:37:15.097Z,53.00
2023-03-29T16:42:17.511Z,53.70
2023-03-29T16:47:20.123Z,54.30
2023-03-29T16:52:23.221Z,54.10
2023-03-29T16:57:26.945Z,55.10
2023-03-29T17:02:29.601Z,55.60
2023-03-29T17:07:32.481Z,56.50
2023-03-29T17:12:35.044Z,57.50
2023-03-29T17:17:37.867Z,58.10
2023-03-29T17:22:41.051Z,59.00
2023-03-29T17:27:43.624Z,59.70
2023-03-29T17:32:46.051Z,59.90
2023-03-29T17:37:48.650Z,60.70
2023-03-29T17:42:52.581Z,61.90
2023-03-29T17:47:55.052Z,62.60
2023-03-29T17:52:57.569Z,63.60
2023-03-29T17:58:00.406Z,63.30
2023-03-29T18:03:02.977Z,62.80
2023-03-29T18:08:05.487Z,63.40
2023-03-29T18:13:11.343Z,64.10
2023-03-29T18:18:13.706Z,64.60
2023-03-29T18:23:16.142Z,65.10
2023-03-29T18:28:18.541Z,65.80
2023-03-29T18:33:20.882Z,65.80
2023-03-29T18:38:23.241Z,66.60
2023-03-29T18:43:25.535Z,66.70
2023-03-29T18:48:27.834Z,67.80
2023-03-29T18:53:30.343Z,66.90
2023-03-29T18:58:33.022Z,66.90
2023-03-29T19:03:35.646Z,67.40
2023-03-29T19:08:39.684Z,67.90
2023-03-29T19:13:42.472Z,68.60
2023-03-29T19:18:45.198Z,68.80
2023-03-29T19:23:47.544Z,69.40
2023-03-29T19:28:49.866Z,69.60
2023-03-29T19:33:52.218Z,70.10
2023-03-29T19:38:55.654Z,70.90
2023-03-29T19:43:58.185Z,71.90
2023-03-29T19:49:02.147Z,72.30
2023-03-29T19:54:07.020Z,72.90
2023-03-29T19:59:11.260Z,73.00
2023-03-29T20:04:13.785Z,73.90
2023-03-29T20:09:16.279Z,74.50
2023-03-29T20:14:18.632Z,74.20
2023-03-29T20:19:25.325Z,74.90
2023-03-29T20:24:27.639Z,75.10
2023-03-29T20:29:30.595Z,76.20
2023-03-29T20:34:33.140Z,75.70
2023-03-29T20:39:35.718Z,76.30
2023-03-29T20:44:39.204Z,76.50
2023-03-29T20:49:42.217Z,77.10
2023-03-29T20:54:45.734Z,76.90
2023-03-29T20:59:49.510Z,77.20
2023-03-29T21:04:53.017Z,77.10
2023-03-29T21:09:55.333Z,76.70
2023-03-29T21:14:57.611Z,77.60
2023-03-29T21:20:00.133Z,77.30
2023-03-29T21:25:02.571Z,77.60
2023-03-29T21:30:06.456Z,77.40
2023-03-29T21:35:09.575Z,77.40
2023-03-29T21:40:12.697Z,77.20
2023-03-29T21:45:15.086Z,78.10
2023-03-29T21:50:17.552Z,79.00
2023-03-29T21:55:19.923Z,79.40
2023-03-29T22:00:22.708Z,80.30
2023-03-29T22:05:28.438Z,80.10
2023-03-29T22:10:33.007Z,80.70
2023-03-29T22:15:35.657Z,81.70
2023-03-29T22:20:38.378Z,80.30
2023-03-29T22:25:40.817Z,80.80
2023-03-29T22:30:43.103Z,81.50
2023-03-29T22:35:45.578Z,81.00
2023-03-29T22:40:47.984Z,81.70
2023-03-29T22:45:50.478Z,81.30
2023-03-29T22:50:52.877Z,81.50
2023-03-29T22:55:55.974Z,81.90
2023-03-29T23:00:58.836Z,81.70
2023-03-29T23:06:04.529Z,81.40
2023-03-29T23:11:07.481Z,81.40
2023-03-29T23:16:10.403Z,82.20
2023-03-29T23:21:12.901Z,82.60
2023-03-29T23:26:15.897Z,82.10
2023-03-29T23:31:18.802Z,81.80
2023-03-29T23:36:23.415Z,81.50
2023-03-29T23:41:30.480Z,82.80
2023-03-29T23:46:32.900Z,81.90
2023-03-29T23:51:36.750Z,82.40
2023-03-29T23:56:39.289Z,82.30
